Ypsilanti, MI (48197)

4:15 AM EDT on August 30, 2015 (GMT -0400)
Bagley Ave (roof top) | | Change Station
CLOSE
Current Station
Personal Weather Station
Location: Ypsilanti, MI
Elevation: 778 ft
Nearby Weather Stations

Elev 778 ft 42.25 °N, 83.59 °W | Updated 4 minutes ago

Overcast
Overcast
65.3 °F
Feels Like 65.3 °F
N
0.0
Wind Variable Wind from NNE

Today
High -- | Low -- °F
--% Chance of Precip.
Yesterday
High -- | Low -- °F
Precip. -- in
6:57 AM 8:12 PM
Full, 100% visible
Pressure 30.04 in
Visibility 4.0 miles
Clouds Mostly Cloudy 7500 ft
Overcast 9000 ft
Dew Point 64 °F
Humidity 95%
Rainfall 0.00 in
Snow Depth Not available.
UV 0 out of 12
Pollen 8.50 out of 12
Air Quality Not available.
Flu Activity Not available.
SPECI KYIP 300803Z 00000KT 4SM HZ BKN075 OVC090 21/18 A3004 RMK AO2 T02060178
Pressure 30.04 in
Visibility 4.0 miles
Clouds Mostly Cloudy 7500 ft
Overcast 9000 ft
Dew Point 64 °F
Humidity 95%
Rainfall 0.00 in
Snow Depth Not available.
UV 0 out of 12
Pollen 8.50 out of 12
Air Quality Not available.
Flu Activity Not available.
SPECI KYIP 300803Z 00000KT 4SM HZ BKN075 OVC090 21/18 A3004 RMK AO2 T02060178

10-Day Weather Forecast

×

Almanac

Astronomy

Aug. 30, 2015 Rise Set
Actual Time
Civil Twilight
Nautical Twilight
Astronomical Twilight
Moon
Length of Visible Light
Length of Day
Tomorrow will be .
, % of the Moon is Illuminated

Today's Extremes

State Highs State Lows

Community

WunderPhotos

Upload Photos

1,850,909 photos uploaded!

WunderBlogs® & News

Nearby

Air Quality

  Air Quality AQ Index Pollutant
Not available.

Snow Depth

Station Depth Elevation

Earthquake Activity

City Distance Mag. Time & Date
Minimum magnitude displayed is 2.5.

Coastal Water Temperatures

Place Temperature

Stations

Nearby Weather Stations

Station Location Temp. Windchill Dew Point Humidity Wind Precip. Elev Updated Type